sensor_id;sensor_type;location;lat;lon;timestamp;P1;durP1;ratioP1;P2;durP2;ratioP2
58240;SDS011;45058;55.772;38.224;2024-02-23T00:00:02;32.53;;;18.07;;
58240;SDS011;45058;55.772;38.224;2024-02-23T00:02:31;34.77;;;17.70;;
58240;SDS011;45058;55.772;38.224;2024-02-23T00:04:57;30.03;;;17.27;;
58240;SDS011;45058;55.772;38.224;2024-02-23T00:07:23;33.90;;;17.20;;
58240;SDS011;45058;55.772;38.224;2024-02-23T00:09:49;36.77;;;17.07;;
58240;SDS011;45058;55.772;38.224;2024-02-23T00:12:15;32.40;;;16.17;;
58240;SDS011;45058;55.772;38.224;2024-02-23T00:14:41;36.40;;;17.27;;
58240;SDS011;45058;55.772;38.224;2024-02-23T00:17:07;32.37;;;16.90;;
58240;SDS011;45058;55.772;38.224;2024-02-23T00:19:34;40.03;;;18.10;;
58240;SDS011;45058;55.772;38.224;2024-02-23T00:22:00;30.30;;;16.13;;
58240;SDS011;45058;55.772;38.224;2024-02-23T00:24:26;34.43;;;16.97;;
58240;SDS011;45058;55.772;38.224;2024-02-23T00:26:52;32.67;;;18.10;;
58240;SDS011;45058;55.772;38.224;2024-02-23T00:29:18;29.87;;;16.87;;
58240;SDS011;45058;55.772;38.224;2024-02-23T00:31:44;33.10;;;17.13;;
58240;SDS011;45058;55.772;38.224;2024-02-23T00:34:13;32.43;;;18.10;;
58240;SDS011;45058;55.772;38.224;2024-02-23T00:36:40;31.53;;;17.07;;
58240;SDS011;45058;55.772;38.224;2024-02-23T00:39:07;35.73;;;17.53;;
58240;SDS011;45058;55.772;38.224;2024-02-23T00:41:33;28.77;;;16.47;;
58240;SDS011;45058;55.772;38.224;2024-02-23T00:44:00;35.50;;;17.97;;
58240;SDS011;45058;55.772;38.224;2024-02-23T00:46:27;29.47;;;16.20;;
58240;SDS011;45058;55.772;38.224;2024-02-23T00:48:53;33.00;;;17.97;;
58240;SDS011;45058;55.772;38.224;2024-02-23T00:51:20;32.87;;;17.43;;
58240;SDS011;45058;55.772;38.224;2024-02-23T00:53:46;36.97;;;18.53;;
58240;SDS011;45058;55.772;38.224;2024-02-23T00:56:12;33.90;;;17.23;;
58240;SDS011;45058;55.772;38.224;2024-02-23T00:58:38;31.37;;;17.17;;
58240;SDS011;45058;55.772;38.224;2024-02-23T01:01:05;35.70;;;17.77;;
58240;SDS011;45058;55.772;38.224;2024-02-23T01:03:31;37.43;;;17.60;;
58240;SDS011;45058;55.772;38.224;2024-02-23T01:05:58;28.70;;;15.13;;
58240;SDS011;45058;55.772;38.224;2024-02-23T01:08:24;33.50;;;17.90;;
58240;SDS011;45058;55.772;38.224;2024-02-23T01:10:50;39.20;;;18.23;;
58240;SDS011;45058;55.772;38.224;2024-02-23T01:13:16;29.60;;;16.30;;
58240;SDS011;45058;55.772;38.224;2024-02-23T01:15:42;37.03;;;18.33;;
58240;SDS011;45058;55.772;38.224;2024-02-23T01:18:08;34.83;;;18.63;;
58240;SDS011;45058;55.772;38.224;2024-02-23T01:20:34;40.67;;;19.20;;
58240;SDS011;45058;55.772;38.224;2024-02-23T01:23:00;37.87;;;19.30;;
58240;SDS011;45058;55.772;38.224;2024-02-23T01:25:26;33.20;;;17.83;;
58240;SDS011;45058;55.772;38.224;2024-02-23T01:27:52;35.77;;;18.03;;
58240;SDS011;45058;55.772;38.224;2024-02-23T01:30:18;36.00;;;18.07;;
58240;SDS011;45058;55.772;38.224;2024-02-23T01:32:45;36.10;;;18.37;;
58240;SDS011;45058;55.772;38.224;2024-02-23T01:35:11;38.27;;;18.00;;
58240;SDS011;45058;55.772;38.224;2024-02-23T01:37:37;31.67;;;17.80;;
58240;SDS011;45058;55.772;38.224;2024-02-23T01:40:03;34.93;;;19.10;;
58240;SDS011;45058;55.772;38.224;2024-02-23T01:42:33;35.33;;;18.87;;
58240;SDS011;45058;55.772;38.224;2024-02-23T01:44:58;35.13;;;18.03;;
58240;SDS011;45058;55.772;38.224;2024-02-23T01:47:26;36.87;;;19.47;;
58240;SDS011;45058;55.772;38.224;2024-02-23T01:49:53;35.23;;;18.37;;
58240;SDS011;45058;55.772;38.224;2024-02-23T01:52:20;37.57;;;18.83;;
58240;SDS011;45058;55.772;38.224;2024-02-23T01:54:46;32.43;;;16.93;;
58240;SDS011;45058;55.772;38.224;2024-02-23T01:57:14;35.37;;;19.13;;
58240;SDS011;45058;55.772;38.224;2024-02-23T01:59:40;34.40;;;17.47;;
58240;SDS011;45058;55.772;38.224;2024-02-23T02:02:07;40.20;;;19.67;;
58240;SDS011;45058;55.772;38.224;2024-02-23T02:04:33;32.53;;;18.10;;
58240;SDS011;45058;55.772;38.224;2024-02-23T02:06:59;35.67;;;18.87;;
58240;SDS011;45058;55.772;38.224;2024-02-23T02:09:26;40.30;;;18.87;;
58240;SDS011;45058;55.772;38.224;2024-02-23T02:11:53;33.57;;;17.40;;
58240;SDS011;45058;55.772;38.224;2024-02-23T02:14:19;35.90;;;17.93;;
58240;SDS011;45058;55.772;38.224;2024-02-23T02:16:45;32.47;;;17.60;;
58240;SDS011;45058;55.772;38.224;2024-02-23T02:19:12;36.37;;;17.80;;
58240;SDS011;45058;55.772;38.224;2024-02-23T02:21:40;37.53;;;17.53;;
58240;SDS011;45058;55.772;38.224;2024-02-23T02:24:07;36.70;;;16.93;;
58240;SDS011;45058;55.772;38.224;2024-02-23T02:26:34;31.97;;;17.17;;
58240;SDS011;45058;55.772;38.224;2024-02-23T02:29:01;39.10;;;20.17;;
58240;SDS011;45058;55.772;38.224;2024-02-23T02:31:27;37.17;;;17.73;;
58240;SDS011;45058;55.772;38.224;2024-02-23T02:33:53;33.47;;;16.80;;
58240;SDS011;45058;55.772;38.224;2024-02-23T02:36:19;33.67;;;17.50;;
58240;SDS011;45058;55.772;38.224;2024-02-23T02:38:45;32.97;;;17.57;;
58240;SDS011;45058;55.772;38.224;2024-02-23T02:41:11;35.93;;;16.60;;
58240;SDS011;45058;55.772;38.224;2024-02-23T02:43:37;29.80;;;16.33;;
58240;SDS011;45058;55.772;38.224;2024-02-23T02:46:03;34.13;;;16.73;;
58240;SDS011;45058;55.772;38.224;2024-02-23T02:48:29;31.17;;;16.73;;
58240;SDS011;45058;55.772;38.224;2024-02-23T02:50:55;31.37;;;15.77;;
58240;SDS011;45058;55.772;38.224;2024-02-23T02:53:21;30.03;;;16.30;;
58240;SDS011;45058;55.772;38.224;2024-02-23T02:55:47;30.67;;;16.47;;
58240;SDS011;45058;55.772;38.224;2024-02-23T02:58:14;29.53;;;16.63;;
58240;SDS011;45058;55.772;38.224;2024-02-23T03:00:40;30.27;;;16.30;;
58240;SDS011;45058;55.772;38.224;2024-02-23T03:03:06;33.60;;;17.13;;
58240;SDS011;45058;55.772;38.224;2024-02-23T03:05:32;28.87;;;15.17;;
58240;SDS011;45058;55.772;38.224;2024-02-23T03:07:58;30.70;;;16.57;;
58240;SDS011;45058;55.772;38.224;2024-02-23T03:10:24;29.60;;;15.73;;
58240;SDS011;45058;55.772;38.224;2024-02-23T03:12:50;29.83;;;15.60;;
58240;SDS011;45058;55.772;38.224;2024-02-23T03:15:16;31.43;;;15.57;;
58240;SDS011;45058;55.772;38.224;2024-02-23T03:17:42;32.57;;;15.60;;
58240;SDS011;45058;55.772;38.224;2024-02-23T03:20:08;25.73;;;14.83;;
58240;SDS011;45058;55.772;38.224;2024-02-23T03:22:35;32.00;;;15.47;;
58240;SDS011;45058;55.772;38.224;2024-02-23T03:25:01;31.00;;;15.57;;
58240;SDS011;45058;55.772;38.224;2024-02-23T03:27:35;28.07;;;15.47;;
58240;SDS011;45058;55.772;38.224;2024-02-23T03:30:05;27.83;;;16.03;;
58240;SDS011;45058;55.772;38.224;2024-02-23T03:32:33;28.00;;;15.40;;
58240;SDS011;45058;55.772;38.224;2024-02-23T03:35:03;30.57;;;16.27;;
58240;SDS011;45058;55.772;38.224;2024-02-23T03:37:30;30.17;;;15.40;;
58240;SDS011;45058;55.772;38.224;2024-02-23T03:39:56;34.63;;;15.30;;
58240;SDS011;45058;55.772;38.224;2024-02-23T03:42:23;26.10;;;15.53;;
58240;SDS011;45058;55.772;38.224;2024-02-23T03:44:49;30.03;;;14.90;;
58240;SDS011;45058;55.772;38.224;2024-02-23T03:47:16;31.53;;;15.83;;
58240;SDS011;45058;55.772;38.224;2024-02-23T03:49:42;27.37;;;14.60;;
58240;SDS011;45058;55.772;38.224;2024-02-23T03:52:08;27.97;;;15.27;;
58240;SDS011;45058;55.772;38.224;2024-02-23T03:54:34;27.30;;;15.70;;
58240;SDS011;45058;55.772;38.224;2024-02-23T03:57:00;26.93;;;15.77;;
58240;SDS011;45058;55.772;38.224;2024-02-23T03:59:26;27.27;;;14.83;;
58240;SDS011;45058;55.772;38.224;2024-02-23T04:01:52;32.00;;;15.77;;
58240;SDS011;45058;55.772;38.224;2024-02-23T04:04:18;32.27;;;15.97;;
58240;SDS011;45058;55.772;38.224;2024-02-23T04:06:44;32.13;;;15.07;;
58240;SDS011;45058;55.772;38.224;2024-02-23T04:09:10;29.17;;;15.07;;
58240;SDS011;45058;55.772;38.224;2024-02-23T04:11:36;30.93;;;15.60;;
58240;SDS011;45058;55.772;38.224;2024-02-23T04:14:03;27.13;;;14.53;;
58240;SDS011;45058;55.772;38.224;2024-02-23T04:16:30;30.47;;;14.63;;
58240;SDS011;45058;55.772;38.224;2024-02-23T04:18:57;31.93;;;16.00;;
58240;SDS011;45058;55.772;38.224;2024-02-23T04:21:25;30.83;;;14.10;;
58240;SDS011;45058;55.772;38.224;2024-02-23T04:23:51;25.87;;;14.73;;
58240;SDS011;45058;55.772;38.224;2024-02-23T04:26:17;30.83;;;15.43;;
58240;SDS011;45058;55.772;38.224;2024-02-23T04:28:43;27.60;;;15.93;;
58240;SDS011;45058;55.772;38.224;2024-02-23T04:31:09;33.37;;;15.63;;
58240;SDS011;45058;55.772;38.224;2024-02-23T04:33:35;36.00;;;15.13;;
58240;SDS011;45058;55.772;38.224;2024-02-23T04:36:03;29.00;;;15.70;;
58240;SDS011;45058;55.772;38.224;2024-02-23T04:38:30;32.83;;;15.60;;
58240;SDS011;45058;55.772;38.224;2024-02-23T04:40:56;28.63;;;15.80;;
58240;SDS011;45058;55.772;38.224;2024-02-23T04:43:23;33.77;;;16.57;;
58240;SDS011;45058;55.772;38.224;2024-02-23T04:45:50;41.27;;;16.20;;
58240;SDS011;45058;55.772;38.224;2024-02-23T04:48:16;30.60;;;15.57;;
58240;SDS011;45058;55.772;38.224;2024-02-23T04:50:42;30.13;;;16.50;;
58240;SDS011;45058;55.772;38.224;2024-02-23T04:53:08;37.20;;;16.10;;
58240;SDS011;45058;55.772;38.224;2024-02-23T04:55:36;32.97;;;16.03;;
58240;SDS011;45058;55.772;38.224;2024-02-23T04:58:02;29.90;;;15.40;;
58240;SDS011;45058;55.772;38.224;2024-02-23T05:00:28;29.33;;;15.47;;
58240;SDS011;45058;55.772;38.224;2024-02-23T05:02:59;30.63;;;15.97;;
58240;SDS011;45058;55.772;38.224;2024-02-23T05:05:29;41.03;;;17.40;;
58240;SDS011;45058;55.772;38.224;2024-02-23T05:07:56;33.77;;;16.10;;
58240;SDS011;45058;55.772;38.224;2024-02-23T05:10:22;32.30;;;16.10;;
58240;SDS011;45058;55.772;38.224;2024-02-23T05:12:48;32.13;;;14.80;;
58240;SDS011;45058;55.772;38.224;2024-02-23T05:15:15;33.30;;;16.13;;
58240;SDS011;45058;55.772;38.224;2024-02-23T05:17:41;32.43;;;15.63;;
58240;SDS011;45058;55.772;38.224;2024-02-23T05:20:07;33.97;;;17.07;;
58240;SDS011;45058;55.772;38.224;2024-02-23T05:22:36;30.60;;;16.43;;
58240;SDS011;45058;55.772;38.224;2024-02-23T05:25:04;30.77;;;15.97;;
58240;SDS011;45058;55.772;38.224;2024-02-23T05:27:31;31.57;;;15.47;;
58240;SDS011;45058;55.772;38.224;2024-02-23T05:29:57;42.90;;;16.83;;
58240;SDS011;45058;55.772;38.224;2024-02-23T05:32:23;33.27;;;17.50;;
58240;SDS011;45058;55.772;38.224;2024-02-23T05:34:49;33.47;;;15.83;;
58240;SDS011;45058;55.772;38.224;2024-02-23T05:37:18;33.20;;;15.13;;
58240;SDS011;45058;55.772;38.224;2024-02-23T05:39:44;35.77;;;16.40;;
58240;SDS011;45058;55.772;38.224;2024-02-23T05:42:12;37.00;;;16.20;;
58240;SDS011;45058;55.772;38.224;2024-02-23T05:44:39;31.53;;;16.47;;
58240;SDS011;45058;55.772;38.224;2024-02-23T05:47:05;33.93;;;16.00;;
58240;SDS011;45058;55.772;38.224;2024-02-23T05:49:32;31.50;;;15.30;;
58240;SDS011;45058;55.772;38.224;2024-02-23T05:51:58;37.43;;;16.73;;
58240;SDS011;45058;55.772;38.224;2024-02-23T05:54:24;33.30;;;15.87;;
58240;SDS011;45058;55.772;38.224;2024-02-23T05:56:50;32.60;;;15.10;;
58240;SDS011;45058;55.772;38.224;2024-02-23T05:59:16;37.17;;;16.07;;
58240;SDS011;45058;55.772;38.224;2024-02-23T06:01:42;26.03;;;14.40;;
58240;SDS011;45058;55.772;38.224;2024-02-23T06:04:09;31.63;;;15.60;;
58240;SDS011;45058;55.772;38.224;2024-02-23T06:06:35;31.73;;;14.40;;
58240;SDS011;45058;55.772;38.224;2024-02-23T06:09:01;39.67;;;14.07;;
58240;SDS011;45058;55.772;38.224;2024-02-23T11:37:28;38.55;;;20.02;;
58240;SDS011;45058;55.772;38.224;2024-02-23T11:39:55;35.30;;;16.43;;
58240;SDS011;45058;55.772;38.224;2024-02-23T11:42:34;35.77;;;16.63;;
58240;SDS011;45058;55.772;38.224;2024-02-23T11:45:01;33.40;;;16.27;;
58240;SDS011;45058;55.772;38.224;2024-02-23T11:47:29;39.77;;;17.27;;
58240;SDS011;45058;55.772;38.224;2024-02-23T11:49:57;37.27;;;17.37;;
58240;SDS011;45058;55.772;38.224;2024-02-23T11:52:23;35.13;;;16.73;;
58240;SDS011;45058;55.772;38.224;2024-02-23T11:54:51;39.37;;;16.63;;
58240;SDS011;45058;55.772;38.224;2024-02-23T11:57:18;46.73;;;21.47;;
58240;SDS011;45058;55.772;38.224;2024-02-23T11:59:44;40.40;;;19.10;;
58240;SDS011;45058;55.772;38.224;2024-02-23T13:46:00;52.55;;;25.92;;
58240;SDS011;45058;55.772;38.224;2024-02-23T13:48:29;52.77;;;23.57;;
58240;SDS011;45058;55.772;38.224;2024-02-23T13:50:56;51.30;;;21.23;;
58240;SDS011;45058;55.772;38.224;2024-02-23T20:19:50;48.50;;;27.50;;
58240;SDS011;45058;55.772;38.224;2024-02-23T20:22:17;42.90;;;23.33;;
58240;SDS011;45058;55.772;38.224;2024-02-23T20:24:44;44.47;;;23.43;;
58240;SDS011;45058;55.772;38.224;2024-02-23T20:27:10;47.50;;;23.60;;
58240;SDS011;45058;55.772;38.224;2024-02-23T20:29:37;40.37;;;21.83;;
58240;SDS011;45058;55.772;38.224;2024-02-23T20:32:03;42.10;;;22.37;;
58240;SDS011;45058;55.772;38.224;2024-02-23T20:34:31;40.87;;;20.93;;
58240;SDS011;45058;55.772;38.224;2024-02-23T20:36:57;45.77;;;23.00;;
58240;SDS011;45058;55.772;38.224;2024-02-23T20:39:24;37.13;;;19.73;;
58240;SDS011;45058;55.772;38.224;2024-02-23T20:41:50;38.30;;;20.00;;
58240;SDS011;45058;55.772;38.224;2024-02-23T20:44:16;32.67;;;16.60;;
58240;SDS011;45058;55.772;38.224;2024-02-23T20:46:42;40.23;;;18.80;;
58240;SDS011;45058;55.772;38.224;2024-02-23T20:49:08;32.03;;;17.70;;
58240;SDS011;45058;55.772;38.224;2024-02-23T20:51:34;32.60;;;18.17;;
58240;SDS011;45058;55.772;38.224;2024-02-23T20:54:00;33.17;;;17.83;;
58240;SDS011;45058;55.772;38.224;2024-02-23T20:56:26;29.77;;;16.77;;
58240;SDS011;45058;55.772;38.224;2024-02-23T20:58:56;29.37;;;17.03;;
58240;SDS011;45058;55.772;38.224;2024-02-23T21:01:22;30.97;;;17.33;;
58240;SDS011;45058;55.772;38.224;2024-02-23T21:03:49;32.37;;;18.23;;
58240;SDS011;45058;55.772;38.224;2024-02-23T21:06:15;32.00;;;17.63;;
58240;SDS011;45058;55.772;38.224;2024-02-23T21:08:41;32.13;;;17.57;;
58240;SDS011;45058;55.772;38.224;2024-02-23T21:11:07;35.17;;;18.70;;
58240;SDS011;45058;55.772;38.224;2024-02-23T21:13:33;41.10;;;18.07;;
58240;SDS011;45058;55.772;38.224;2024-02-23T21:15:59;39.10;;;19.77;;
58240;SDS011;45058;55.772;38.224;2024-02-23T21:18:26;40.20;;;19.70;;
58240;SDS011;45058;55.772;38.224;2024-02-23T21:20:52;39.67;;;18.60;;
58240;SDS011;45058;55.772;38.224;2024-02-23T21:23:18;41.80;;;19.43;;
58240;SDS011;45058;55.772;38.224;2024-02-23T21:25:57;38.47;;;18.77;;
58240;SDS011;45058;55.772;38.224;2024-02-23T21:28:23;37.03;;;18.90;;
58240;SDS011;45058;55.772;38.224;2024-02-23T21:30:49;36.30;;;17.83;;
58240;SDS011;45058;55.772;38.224;2024-02-23T21:33:19;32.43;;;18.77;;
58240;SDS011;45058;55.772;38.224;2024-02-23T21:35:45;36.23;;;18.43;;
58240;SDS011;45058;55.772;38.224;2024-02-23T21:38:11;30.90;;;17.50;;
58240;SDS011;45058;55.772;38.224;2024-02-23T21:40:37;31.20;;;18.20;;
58240;SDS011;45058;55.772;38.224;2024-02-23T21:43:04;31.13;;;16.93;;
58240;SDS011;45058;55.772;38.224;2024-02-23T21:45:32;28.53;;;17.50;;
58240;SDS011;45058;55.772;38.224;2024-02-23T21:47:58;29.77;;;17.30;;
58240;SDS011;45058;55.772;38.224;2024-02-23T21:50:24;32.30;;;17.40;;
58240;SDS011;45058;55.772;38.224;2024-02-23T21:52:50;25.73;;;16.17;;
58240;SDS011;45058;55.772;38.224;2024-02-23T21:55:17;30.47;;;16.67;;
58240;SDS011;45058;55.772;38.224;2024-02-23T21:57:46;30.20;;;17.77;;
58240;SDS011;45058;55.772;38.224;2024-02-23T22:00:13;27.67;;;16.17;;
58240;SDS011;45058;55.772;38.224;2024-02-23T22:02:39;29.93;;;17.13;;
58240;SDS011;45058;55.772;38.224;2024-02-23T22:05:05;31.17;;;17.13;;
58240;SDS011;45058;55.772;38.224;2024-02-23T22:07:31;35.27;;;18.40;;
58240;SDS011;45058;55.772;38.224;2024-02-23T22:09:57;32.57;;;18.00;;
58240;SDS011;45058;55.772;38.224;2024-02-23T22:12:23;36.77;;;19.67;;
58240;SDS011;45058;55.772;38.224;2024-02-23T22:14:52;32.40;;;18.77;;
58240;SDS011;45058;55.772;38.224;2024-02-23T22:17:23;34.50;;;18.00;;
58240;SDS011;45058;55.772;38.224;2024-02-23T22:19:51;36.23;;;18.60;;
58240;SDS011;45058;55.772;38.224;2024-02-23T22:22:17;34.40;;;19.67;;
58240;SDS011;45058;55.772;38.224;2024-02-23T22:24:43;34.10;;;18.90;;
58240;SDS011;45058;55.772;38.224;2024-02-23T22:27:09;33.20;;;18.77;;
58240;SDS011;45058;55.772;38.224;2024-02-23T22:29:39;32.93;;;18.97;;
58240;SDS011;45058;55.772;38.224;2024-02-23T22:32:05;33.70;;;19.03;;
58240;SDS011;45058;55.772;38.224;2024-02-23T22:34:31;33.70;;;19.53;;
58240;SDS011;45058;55.772;38.224;2024-02-23T22:36:57;34.40;;;20.43;;
58240;SDS011;45058;55.772;38.224;2024-02-23T22:39:23;33.50;;;18.67;;
58240;SDS011;45058;55.772;38.224;2024-02-23T22:41:49;33.63;;;19.93;;
58240;SDS011;45058;55.772;38.224;2024-02-23T22:44:15;35.23;;;20.30;;
58240;SDS011;45058;55.772;38.224;2024-02-23T22:46:41;33.83;;;19.73;;
58240;SDS011;45058;55.772;38.224;2024-02-23T22:49:08;30.43;;;18.63;;
58240;SDS011;45058;55.772;38.224;2024-02-23T22:51:34;37.83;;;20.33;;
58240;SDS011;45058;55.772;38.224;2024-02-23T22:54:00;33.40;;;19.20;;
58240;SDS011;45058;55.772;38.224;2024-02-23T22:56:26;36.37;;;19.80;;
58240;SDS011;45058;55.772;38.224;2024-02-23T22:58:52;35.90;;;20.17;;
58240;SDS011;45058;55.772;38.224;2024-02-23T23:01:18;38.07;;;19.93;;
58240;SDS011;45058;55.772;38.224;2024-02-23T23:03:44;33.43;;;19.47;;
58240;SDS011;45058;55.772;38.224;2024-02-23T23:06:10;36.73;;;20.97;;
58240;SDS011;45058;55.772;38.224;2024-02-23T23:08:36;34.70;;;21.23;;
58240;SDS011;45058;55.772;38.224;2024-02-23T23:11:05;33.50;;;19.67;;
58240;SDS011;45058;55.772;38.224;2024-02-23T23:13:52;35.38;;;19.90;;
58240;SDS011;45058;55.772;38.224;2024-02-23T23:16:35;37.37;;;20.20;;
58240;SDS011;45058;55.772;38.224;2024-02-23T23:19:20;30.97;;;19.37;;
58240;SDS011;45058;55.772;38.224;2024-02-23T23:22:01;32.58;;;20.08;;
58240;SDS011;45058;55.772;38.224;2024-02-23T23:24:28;34.63;;;21.30;;
58240;SDS011;45058;55.772;38.224;2024-02-23T23:26:54;34.50;;;21.10;;
58240;SDS011;45058;55.772;38.224;2024-02-23T23:29:20;33.40;;;19.57;;
58240;SDS011;45058;55.772;38.224;2024-02-23T23:31:46;32.30;;;20.33;;
58240;SDS011;45058;55.772;38.224;2024-02-23T23:34:12;33.47;;;21.00;;
58240;SDS011;45058;55.772;38.224;2024-02-23T23:36:39;34.03;;;20.97;;
58240;SDS011;45058;55.772;38.224;2024-02-23T23:39:05;34.80;;;22.00;;
58240;SDS011;45058;55.772;38.224;2024-02-23T23:41:32;39.33;;;20.77;;
58240;SDS011;45058;55.772;38.224;2024-02-23T23:43:58;32.10;;;20.97;;
58240;SDS011;45058;55.772;38.224;2024-02-23T23:46:24;40.63;;;20.90;;
58240;SDS011;45058;55.772;38.224;2024-02-23T23:48:51;29.20;;;20.17;;
58240;SDS011;45058;55.772;38.224;2024-02-23T23:51:17;35.50;;;20.70;;
58240;SDS011;45058;55.772;38.224;2024-02-23T23:53:43;33.30;;;20.77;;
58240;SDS011;45058;55.772;38.224;2024-02-23T23:56:09;36.37;;;21.93;;
58240;SDS011;45058;55.772;38.224;2024-02-23T23:58:38;34.93;;;20.97;;
